createdAt,value
2022-07-26T00:01:58.433Z,31.24
2022-07-26T00:04:26.248Z,31.23
2022-07-26T00:06:53.790Z,30.93
2022-07-26T00:09:21.326Z,31.01
2022-07-26T00:11:49.118Z,31.45
2022-07-26T00:14:16.638Z,30.94
2022-07-26T00:16:44.201Z,30.86
2022-07-26T00:19:12.194Z,30.80
2022-07-26T00:21:40.615Z,30.63
2022-07-26T00:24:09.157Z,30.96
2022-07-26T00:26:37.473Z,30.97
2022-07-26T00:29:06.025Z,31.02
2022-07-26T00:31:33.917Z,30.88
2022-07-26T00:34:01.761Z,30.90
2022-07-26T00:36:29.853Z,30.86
2022-07-26T00:38:57.362Z,30.89
2022-07-26T00:41:25.118Z,31.25
2022-07-26T00:43:57.316Z,30.89
2022-07-26T00:46:25.284Z,30.85
2022-07-26T00:48:52.925Z,30.96
2022-07-26T00:51:21.322Z,31.16
2022-07-26T00:53:49.438Z,31.69
2022-07-26T00:56:17.476Z,31.74
2022-07-26T00:58:45.037Z,31.76
2022-07-26T01:01:12.975Z,31.71
2022-07-26T01:03:40.521Z,31.93
2022-07-26T01:06:08.790Z,32.38
2022-07-26T01:08:36.803Z,32.26
2022-07-26T01:11:04.387Z,32.22
2022-07-26T01:13:35.267Z,32.17
2022-07-26T01:16:04.000Z,32.00
2022-07-26T01:18:31.589Z,32.14
2022-07-26T01:21:00.918Z,32.08
2022-07-26T01:23:29.004Z,32.40
2022-07-26T01:25:59.678Z,32.14
2022-07-26T01:28:27.984Z,32.14
2022-07-26T01:30:55.860Z,32.16
2022-07-26T01:33:23.324Z,32.01
2022-07-26T01:35:50.829Z,32.06
2022-07-26T01:38:18.651Z,32.65
2022-07-26T01:40:46.225Z,32.59
2022-07-26T01:43:13.747Z,32.71
2022-07-26T01:45:41.721Z,32.76
2022-07-26T01:48:09.340Z,32.59
2022-07-26T01:50:38.401Z,32.97
2022-07-26T01:53:06.553Z,32.78
2022-07-26T01:55:35.083Z,32.57
2022-07-26T01:58:05.247Z,32.42
2022-07-26T02:00:34.154Z,32.25
2022-07-26T02:03:02.118Z,32.02
2022-07-26T02:05:29.906Z,32.24
2022-07-26T02:07:57.389Z,32.48
2022-07-26T02:10:45.714Z,32.56
2022-07-26T02:13:14.959Z,32.94
2022-07-26T02:15:42.793Z,32.93
2022-07-26T02:18:10.296Z,32.89
2022-07-26T02:20:37.869Z,32.64
2022-07-26T02:23:05.746Z,32.72
2022-07-26T02:25:33.342Z,32.74
2022-07-26T02:28:01.629Z,32.60
2022-07-26T02:30:29.467Z,32.71
2022-07-26T02:32:57.033Z,32.44
2022-07-26T02:35:24.514Z,32.67
2022-07-26T02:37:52.404Z,32.78
2022-07-26T02:40:19.887Z,32.49
2022-07-26T02:42:47.402Z,32.67
2022-07-26T02:45:15.173Z,32.72
2022-07-26T02:47:50.397Z,32.94
2022-07-26T02:50:19.121Z,32.97
2022-07-26T02:52:48.217Z,33.12
2022-07-26T02:55:17.339Z,33.34
2022-07-26T02:57:46.156Z,33.28
2022-07-26T03:00:16.450Z,33.23
2022-07-26T03:02:44.064Z,33.15
2022-07-26T03:05:12.303Z,32.99
2022-07-26T03:07:39.825Z,32.98
2022-07-26T03:10:08.109Z,33.22
2022-07-26T03:12:35.869Z,33.50
2022-07-26T03:15:03.830Z,33.48
2022-07-26T03:17:32.224Z,33.83
2022-07-26T03:20:00.249Z,33.64
2022-07-26T03:22:27.722Z,33.46
2022-07-26T03:24:55.207Z,33.72
2022-07-26T03:27:23.074Z,33.79
2022-07-26T03:29:50.565Z,33.81
2022-07-26T03:32:18.050Z,34.00
2022-07-26T03:34:45.794Z,33.93
2022-07-26T03:37:13.253Z,33.84
2022-07-26T03:39:40.729Z,33.93
2022-07-26T03:42:08.542Z,33.93
2022-07-26T03:44:36.186Z,33.96
2022-07-26T03:47:03.827Z,34.03
2022-07-26T03:49:31.682Z,34.14
2022-07-26T03:51:59.341Z,33.99
2022-07-26T03:54:26.826Z,33.77
2022-07-26T03:56:54.553Z,33.73
2022-07-26T03:59:24.089Z,33.69
2022-07-26T04:01:51.858Z,33.89
2022-07-26T04:04:20.905Z,33.45
2022-07-26T04:06:52.993Z,33.63
2022-07-26T04:09:20.737Z,33.50
2022-07-26T04:11:48.708Z,33.39
2022-07-26T04:14:16.394Z,33.60
2022-07-26T04:16:44.195Z,33.83
2022-07-26T04:19:11.724Z,33.38
2022-07-26T04:21:39.210Z,33.28
2022-07-26T04:24:07.705Z,33.33
2022-07-26T04:26:35.414Z,33.69
2022-07-26T04:29:02.919Z,34.10
2022-07-26T04:31:36.238Z,34.39
2022-07-26T04:34:04.366Z,33.95
2022-07-26T04:36:32.349Z,34.46
2022-07-26T04:38:59.818Z,35.26
2022-07-26T04:41:27.858Z,36.42
2022-07-26T04:43:56.275Z,34.70
2022-07-26T04:46:25.299Z,35.54
2022-07-26T04:48:52.908Z,35.19
2022-07-26T04:51:20.970Z,34.63
2022-07-26T04:53:48.434Z,34.39
2022-07-26T04:56:15.890Z,33.72
2022-07-26T04:58:43.682Z,33.84
2022-07-26T05:01:11.480Z,34.29
2022-07-26T05:03:39.319Z,33.28
2022-07-26T05:06:07.139Z,33.06
2022-07-26T05:08:34.654Z,32.58
2022-07-26T05:11:02.182Z,31.60
2022-07-26T05:13:31.004Z,32.05
2022-07-26T05:15:59.848Z,31.76
2022-07-26T05:18:29.274Z,31.62
2022-07-26T05:20:59.187Z,31.28
2022-07-26T05:23:26.722Z,31.18
2022-07-26T05:25:55.446Z,32.03
2022-07-26T05:28:23.534Z,31.68
2022-07-26T05:30:51.275Z,31.51
2022-07-26T05:33:18.872Z,31.64
2022-07-26T05:35:46.613Z,31.85
2022-07-26T05:38:14.132Z,31.94
2022-07-26T05:40:42.126Z,32.76
2022-07-26T05:43:11.791Z,32.77
2022-07-26T05:45:39.424Z,33.32
2022-07-26T05:48:07.270Z,34.68
2022-07-26T05:50:35.011Z,35.51
2022-07-26T05:53:02.597Z,35.67
2022-07-26T05:55:30.086Z,36.28
2022-07-26T05:57:57.842Z,35.83
2022-07-26T06:00:26.093Z,36.57
2022-07-26T06:02:53.888Z,36.65
2022-07-26T06:05:21.394Z,36.93
2022-07-26T06:07:48.889Z,38.34
2022-07-26T06:10:16.650Z,38.86
2022-07-26T06:12:44.183Z,38.79
2022-07-26T06:15:15.718Z,39.22
2022-07-26T06:17:43.804Z,40.52
2022-07-26T06:20:11.706Z,43.20
2022-07-26T06:22:39.252Z,42.12
2022-07-26T06:25:07.549Z,43.43
2022-07-26T06:27:34.998Z,42.69
2022-07-26T06:30:02.472Z,42.94
2022-07-26T06:32:30.422Z,44.29
2022-07-26T06:34:57.890Z,43.68
2022-07-26T06:37:25.829Z,43.96
2022-07-26T06:39:53.629Z,43.27
2022-07-26T06:42:21.186Z,43.78
2022-07-26T06:44:48.697Z,43.37
2022-07-26T06:47:16.567Z,44.15
2022-07-26T06:49:44.871Z,44.33
2022-07-26T06:52:12.387Z,44.17
2022-07-26T06:54:40.168Z,44.33
2022-07-26T06:57:07.950Z,44.32
2022-07-26T06:59:35.514Z,43.65
2022-07-26T07:02:04.475Z,43.54
2022-07-26T07:04:32.807Z,43.45
2022-07-26T07:07:06.099Z,42.92
2022-07-26T07:09:35.999Z,44.01
2022-07-26T07:12:10.348Z,43.68
2022-07-26T07:14:39.192Z,42.76
2022-07-26T07:17:12.247Z,42.57
2022-07-26T07:19:41.861Z,42.19
2022-07-26T07:22:12.336Z,42.55
2022-07-26T07:24:40.937Z,41.71
2022-07-26T07:27:10.403Z,41.74
2022-07-26T07:29:38.792Z,41.48
2022-07-26T07:32:18.297Z,41.56
2022-07-26T07:34:50.959Z,41.39
2022-07-26T07:37:20.233Z,42.08
2022-07-26T07:39:50.025Z,41.08
2022-07-26T07:42:19.626Z,41.37
2022-07-26T07:44:47.583Z,41.35
2022-07-26T07:47:15.124Z,41.43
2022-07-26T07:49:43.148Z,41.56
2022-07-26T07:52:10.893Z,41.74
2022-07-26T07:54:38.329Z,41.19
2022-07-26T07:57:05.812Z,41.95
2022-07-26T07:59:33.691Z,42.43
2022-07-26T08:02:06.958Z,42.75
2022-07-26T08:04:35.000Z,43.12
2022-07-26T08:07:02.574Z,43.41
2022-07-26T08:09:30.054Z,43.22
2022-07-26T08:12:02.821Z,43.95
2022-07-26T08:14:30.343Z,44.29
2022-07-26T08:16:58.071Z,43.39
2022-07-26T08:19:26.478Z,44.39
2022-07-26T08:22:08.755Z,44.13
2022-07-26T08:24:36.712Z,43.31
2022-07-26T08:27:04.509Z,42.84
2022-07-26T08:29:32.075Z,43.96
2022-07-26T08:31:59.856Z,43.73
2022-07-26T08:34:27.383Z,43.20
2022-07-26T08:37:16.115Z,43.09
2022-07-26T08:39:42.643Z,42.10
2022-07-26T08:42:15.109Z,42.54
2022-07-26T08:44:47.259Z,43.04
2022-07-26T08:47:16.752Z,43.18
2022-07-26T08:50:03.483Z,43.11
2022-07-26T08:52:31.113Z,43.04
2022-07-26T08:54:58.717Z,42.65
2022-07-26T08:57:26.505Z,43.39
2022-07-26T09:00:15.819Z,43.33
2022-07-26T09:02:43.811Z,41.93
2022-07-26T09:05:11.672Z,41.68
2022-07-26T09:07:41.056Z,41.01
2022-07-26T09:10:11.045Z,41.39
2022-07-26T09:12:39.383Z,42.26
2022-07-26T09:15:16.910Z,41.59
2022-07-26T09:17:46.950Z,41.95
2022-07-26T09:20:17.219Z,42.11
2022-07-26T09:23:06.984Z,42.89
2022-07-26T09:25:39.574Z,43.62
2022-07-26T09:28:31.048Z,43.74
2022-07-26T09:31:04.224Z,44.15
2022-07-26T09:33:48.916Z,44.08
2022-07-26T09:36:17.635Z,44.20
2022-07-26T09:38:50.393Z,44.51
2022-07-26T09:41:22.476Z,44.68
2022-07-26T09:43:53.951Z,45.02
2022-07-26T09:46:23.645Z,47.13
2022-07-26T09:49:10.065Z,45.91
2022-07-26T09:51:43.764Z,45.45
2022-07-26T09:54:13.328Z,50.77
2022-07-26T09:56:50.431Z,52.32
2022-07-26T09:59:20.313Z,54.21
2022-07-26T10:01:49.158Z,54.20
2022-07-26T10:04:17.273Z,56.90
2022-07-26T10:06:44.837Z,61.50
2022-07-26T10:09:13.316Z,60.17
2022-07-26T10:11:52.717Z,59.62
2022-07-26T10:14:37.349Z,60.61
2022-07-26T10:17:29.223Z,59.66
2022-07-26T10:20:09.433Z,62.40
2022-07-26T10:22:50.597Z,64.62
2022-07-26T10:25:18.207Z,64.68
2022-07-26T10:27:47.185Z,63.53
2022-07-26T10:30:22.495Z,65.91
2022-07-26T10:33:01.498Z,68.76
2022-07-26T10:35:31.846Z,67.96
2022-07-26T10:38:04.533Z,68.13
2022-07-26T10:40:32.400Z,67.75
2022-07-26T10:43:39.547Z,67.09
2022-07-26T10:46:29.212Z,68.32
2022-07-26T10:49:06.944Z,68.19
2022-07-26T10:51:37.061Z,66.84
2022-07-26T10:54:13.193Z,66.62
2022-07-26T10:56:41.433Z,67.64
2022-07-26T10:59:09.263Z,67.34
2022-07-26T11:01:42.174Z,68.16
2022-07-26T11:04:20.546Z,67.19
2022-07-26T11:06:48.407Z,69.01
2022-07-26T11:09:18.509Z,68.48
2022-07-26T11:11:48.742Z,68.76
2022-07-26T11:14:18.095Z,66.47
2022-07-26T11:16:48.019Z,66.23
2022-07-26T11:19:24.885Z,65.46
2022-07-26T11:21:58.684Z,64.88
2022-07-26T11:24:27.484Z,63.55
2022-07-26T11:26:55.477Z,63.39
2022-07-26T11:29:38.188Z,62.99
2022-07-26T11:32:20.623Z,63.56
2022-07-26T11:35:04.739Z,62.70
2022-07-26T11:37:32.607Z,63.68
2022-07-26T11:40:00.280Z,61.84
2022-07-26T11:42:28.056Z,63.21
2022-07-26T11:44:55.849Z,63.20
2022-07-26T11:47:25.731Z,61.02
2022-07-26T11:50:13.929Z,61.76
2022-07-26T11:52:42.181Z,60.29
2022-07-26T11:55:09.821Z,60.53
2022-07-26T11:57:37.653Z,59.47
2022-07-26T12:00:06.862Z,60.52
2022-07-26T12:02:39.202Z,62.56
2022-07-26T12:05:16.263Z,61.04
2022-07-26T12:07:58.013Z,60.74
2022-07-26T12:10:26.568Z,60.59
2022-07-26T12:13:07.640Z,61.07
2022-07-26T12:15:52.498Z,60.81
2022-07-26T12:18:26.858Z,59.96
2022-07-26T12:21:04.490Z,58.48
2022-07-26T12:23:49.874Z,57.93
2022-07-26T12:26:26.013Z,55.75
2022-07-26T12:28:54.602Z,55.76
2022-07-26T12:31:27.644Z,57.10
2022-07-26T12:33:55.946Z,57.18
2022-07-26T12:36:27.771Z,56.66
2022-07-26T12:38:58.512Z,56.53
2022-07-26T12:41:34.981Z,56.10
2022-07-26T12:44:03.619Z,58.20
2022-07-26T12:46:35.445Z,59.86
2022-07-26T12:49:03.925Z,57.65
2022-07-26T12:51:31.979Z,57.76
2022-07-26T12:53:59.488Z,58.85
2022-07-26T12:56:27.131Z,58.72
2022-07-26T12:59:01.089Z,58.22
2022-07-26T13:01:30.060Z,58.58
2022-07-26T13:03:58.082Z,58.18
2022-07-26T13:06:25.621Z,58.13
2022-07-26T13:08:53.872Z,58.16
2022-07-26T13:11:21.708Z,55.17
2022-07-26T13:13:49.569Z,55.63
2022-07-26T13:16:17.200Z,56.51
2022-07-26T13:18:45.020Z,54.95
2022-07-26T13:21:12.575Z,55.12
2022-07-26T13:23:40.118Z,55.59
2022-07-26T13:26:09.493Z,55.15
2022-07-26T13:28:39.926Z,54.83
2022-07-26T13:31:08.060Z,53.13
2022-07-26T13:33:39.295Z,53.79
2022-07-26T13:36:06.955Z,53.43
2022-07-26T13:38:35.103Z,52.79
2022-07-26T13:41:03.182Z,53.41
2022-07-26T13:43:35.351Z,52.53
2022-07-26T13:46:04.008Z,52.63
2022-07-26T13:48:31.748Z,52.82
2022-07-26T13:50:59.685Z,52.60
2022-07-26T13:53:27.680Z,51.49
2022-07-26T13:55:55.255Z,52.46
2022-07-26T13:58:22.946Z,51.36
2022-07-26T14:00:50.775Z,51.67
2022-07-26T14:03:18.600Z,51.17
2022-07-26T14:05:46.601Z,50.71
2022-07-26T14:08:14.107Z,51.21
2022-07-26T14:10:42.145Z,50.97
2022-07-26T14:13:09.685Z,50.31
2022-07-26T14:15:37.411Z,51.19
2022-07-26T14:18:05.268Z,51.00
2022-07-26T14:20:32.934Z,51.11
2022-07-26T14:23:00.501Z,50.15
2022-07-26T14:25:28.617Z,51.14
2022-07-26T14:27:56.204Z,50.56
2022-07-26T14:30:23.948Z,51.02
2022-07-26T14:32:51.818Z,52.76
2022-07-26T14:35:19.372Z,53.57
2022-07-26T14:37:46.941Z,52.15
2022-07-26T14:40:16.214Z,51.25
2022-07-26T14:42:44.837Z,51.63
2022-07-26T14:45:13.111Z,51.30
2022-07-26T14:47:41.018Z,52.04
2022-07-26T14:50:10.191Z,52.79
2022-07-26T14:52:43.348Z,51.48
2022-07-26T14:55:11.596Z,50.30
2022-07-26T14:57:40.270Z,49.44
2022-07-26T15:00:10.746Z,50.87
2022-07-26T15:02:43.644Z,51.49
2022-07-26T15:05:12.204Z,50.97
2022-07-26T15:07:40.783Z,50.50
2022-07-26T15:10:10.541Z,50.38
2022-07-26T15:12:38.890Z,49.08
2022-07-26T15:15:07.792Z,49.23
2022-07-26T15:17:35.839Z,49.49
2022-07-26T15:20:05.074Z,48.95
2022-07-26T15:22:34.818Z,49.85
2022-07-26T15:25:03.703Z,50.46
2022-07-26T15:27:31.366Z,51.75
2022-07-26T15:30:04.183Z,52.82
2022-07-26T15:32:34.208Z,52.02
2022-07-26T15:35:02.369Z,51.36
2022-07-26T15:37:29.999Z,50.57
2022-07-26T15:39:57.675Z,50.15
2022-07-26T15:42:25.530Z,49.50
2022-07-26T15:44:53.181Z,50.32
2022-07-26T15:50:11.239Z,49.91
2022-07-26T15:52:40.590Z,50.90
2022-07-26T15:55:09.161Z,51.60
2022-07-26T15:57:37.385Z,51.06
2022-07-26T16:00:11.433Z,50.48
2022-07-26T16:02:40.560Z,49.75
2022-07-26T16:05:09.132Z,49.94
2022-07-26T16:07:37.415Z,49.37
2022-07-26T16:10:05.798Z,49.88
2022-07-26T16:12:33.661Z,49.46
2022-07-26T16:15:01.324Z,49.72
2022-07-26T16:17:29.165Z,48.88
2022-07-26T16:19:56.716Z,48.86
2022-07-26T16:22:24.444Z,49.95
2022-07-26T16:24:52.341Z,51.17
2022-07-26T16:27:20.008Z,51.21
2022-07-26T16:29:52.004Z,50.06
2022-07-26T16:32:21.414Z,50.15
2022-07-26T16:34:49.266Z,50.77
2022-07-26T16:37:16.826Z,51.40
2022-07-26T16:39:44.643Z,51.00
2022-07-26T16:42:12.194Z,49.24
2022-07-26T16:44:39.772Z,49.39
2022-07-26T16:47:07.674Z,49.66
2022-07-26T16:49:35.339Z,49.17
2022-07-26T16:52:03.106Z,50.72
2022-07-26T16:54:31.134Z,49.89
2022-07-26T16:57:00.026Z,49.50
2022-07-26T16:59:28.869Z,49.53
2022-07-26T17:01:56.896Z,50.69
2022-07-26T17:04:29.145Z,49.89
2022-07-26T17:07:23.206Z,49.70
2022-07-26T17:09:44.431Z,49.60
2022-07-26T17:12:13.238Z,50.59
2022-07-26T17:14:40.732Z,48.85
2022-07-26T17:17:08.373Z,48.62
2022-07-26T17:19:36.180Z,47.98
2022-07-26T17:22:03.929Z,48.68
2022-07-26T17:24:31.709Z,48.15
2022-07-26T17:27:00.964Z,48.41
2022-07-26T17:29:28.542Z,47.20
2022-07-26T17:31:56.141Z,46.74
2022-07-26T17:34:24.011Z,47.44
2022-07-26T17:37:02.528Z,46.58
2022-07-26T17:39:52.369Z,48.23
2022-07-26T17:42:21.632Z,47.76
2022-07-26T17:44:50.170Z,48.22
2022-07-26T17:47:29.279Z,47.62
2022-07-26T17:52:50.480Z,47.34
2022-07-26T17:55:19.496Z,47.38
2022-07-26T17:57:48.313Z,47.23
2022-07-26T18:00:21.973Z,46.18
2022-07-26T18:02:49.882Z,46.43
2022-07-26T18:05:19.033Z,47.46
2022-07-26T18:07:46.816Z,45.80
2022-07-26T18:10:14.808Z,44.85
2022-07-26T18:12:42.557Z,46.87
2022-07-26T18:15:10.360Z,45.58
2022-07-26T18:17:38.333Z,45.09
2022-07-26T18:20:07.694Z,44.68
2022-07-26T18:22:35.418Z,44.59
2022-07-26T18:25:04.004Z,44.67
2022-07-26T18:27:32.087Z,44.56
2022-07-26T18:30:00.540Z,46.76
2022-07-26T18:32:28.397Z,45.67
2022-07-26T18:34:56.241Z,46.04
2022-07-26T18:37:23.730Z,46.84
2022-07-26T18:39:57.331Z,47.84
2022-07-26T18:42:26.044Z,48.26
2022-07-26T18:44:53.900Z,48.18
2022-07-26T18:47:21.853Z,48.66
2022-07-26T18:49:50.218Z,49.36
2022-07-26T18:52:28.923Z,49.14
2022-07-26T18:55:07.032Z,48.12
2022-07-26T18:57:36.777Z,48.43
2022-07-26T19:00:12.697Z,48.20
2022-07-26T19:02:41.810Z,47.00
2022-07-26T19:05:10.242Z,48.80
2022-07-26T19:07:38.304Z,48.10
2022-07-26T19:10:07.619Z,48.62
2022-07-26T19:12:35.468Z,47.45
2022-07-26T19:15:03.844Z,47.24
2022-07-26T19:17:32.971Z,48.18
2022-07-26T19:20:00.807Z,47.70
2022-07-26T19:22:30.486Z,47.26
2022-07-26T19:24:58.368Z,48.95
2022-07-26T19:27:26.123Z,50.10
2022-07-26T19:29:54.626Z,49.03
2022-07-26T19:32:23.718Z,48.96
2022-07-26T19:34:51.611Z,49.43
2022-07-26T19:37:22.695Z,51.07
2022-07-26T19:39:52.241Z,50.71
2022-07-26T19:42:20.324Z,51.35
2022-07-26T19:44:48.130Z,49.51
2022-07-26T19:47:16.127Z,48.74
2022-07-26T19:49:44.050Z,48.20
2022-07-26T19:52:12.040Z,48.66
2022-07-26T19:54:40.574Z,48.32
2022-07-26T19:57:08.370Z,48.02
2022-07-26T19:59:37.043Z,47.92
2022-07-26T20:02:05.710Z,48.48
2022-07-26T20:04:41.809Z,47.78
2022-07-26T20:07:16.010Z,47.52
2022-07-26T20:09:43.862Z,47.50
2022-07-26T20:12:11.370Z,48.21
2022-07-26T20:14:40.008Z,47.47
2022-07-26T20:17:12.063Z,47.33
2022-07-26T20:19:41.212Z,48.47
2022-07-26T20:22:09.252Z,47.68
2022-07-26T20:24:38.245Z,47.37
2022-07-26T20:27:07.020Z,48.29
2022-07-26T20:29:35.025Z,47.77
2022-07-26T20:32:02.656Z,48.29
2022-07-26T20:34:30.196Z,48.38
2022-07-26T20:36:58.200Z,48.29
2022-07-26T20:39:27.803Z,49.09
2022-07-26T20:41:55.427Z,48.56
2022-07-26T20:44:28.139Z,48.90
2022-07-26T20:46:56.248Z,49.41
2022-07-26T20:49:24.150Z,49.37
2022-07-26T20:51:51.865Z,49.32
2022-07-26T20:54:19.411Z,49.46
2022-07-26T20:56:47.217Z,49.35
2022-07-26T20:59:15.267Z,50.06
2022-07-26T21:01:44.013Z,49.10
2022-07-26T21:04:12.112Z,48.89
2022-07-26T21:06:39.661Z,49.24
2022-07-26T21:09:08.886Z,48.96
2022-07-26T21:11:38.827Z,48.51
2022-07-26T21:14:06.711Z,48.41
2022-07-26T21:16:34.319Z,48.23
2022-07-26T21:19:02.942Z,48.58
2022-07-26T21:21:30.712Z,49.66
2022-07-26T21:23:58.239Z,48.79
2022-07-26T21:26:26.059Z,48.24
2022-07-26T21:28:53.626Z,48.41
2022-07-26T21:31:21.331Z,48.77
2022-07-26T21:33:49.137Z,48.93
2022-07-26T21:36:16.829Z,49.38
2022-07-26T21:38:44.396Z,49.44
2022-07-26T21:41:13.405Z,50.12
2022-07-26T21:43:41.805Z,50.63
2022-07-26T21:46:12.800Z,50.19
2022-07-26T21:48:41.284Z,50.31
2022-07-26T21:51:08.901Z,51.35
2022-07-26T21:53:36.483Z,50.36
2022-07-26T21:56:05.657Z,50.60
2022-07-26T21:58:36.645Z,50.33
2022-07-26T22:01:10.934Z,49.98
2022-07-26T22:03:40.189Z,49.49
2022-07-26T22:06:08.264Z,49.17
2022-07-26T22:08:36.217Z,49.17
2022-07-26T22:11:04.197Z,48.66
2022-07-26T22:13:32.016Z,48.41
2022-07-26T22:15:59.670Z,48.26
2022-07-26T22:18:27.665Z,48.67
2022-07-26T22:20:55.724Z,49.11
2022-07-26T22:23:23.456Z,48.91
2022-07-26T22:25:51.251Z,48.87
2022-07-26T22:28:19.003Z,48.84
2022-07-26T22:30:47.366Z,48.47
2022-07-26T22:33:15.329Z,48.85
2022-07-26T22:35:42.824Z,48.79
2022-07-26T22:38:11.133Z,49.84
2022-07-26T22:40:40.364Z,49.64
2022-07-26T22:43:08.430Z,49.01
2022-07-26T22:45:36.692Z,49.16
2022-07-26T22:48:05.626Z,49.51
2022-07-26T22:50:33.806Z,49.20
2022-07-26T22:53:01.794Z,48.80
2022-07-26T22:55:29.932Z,48.59
2022-07-26T22:57:57.668Z,48.44
2022-07-26T23:00:25.364Z,48.82
2022-07-26T23:02:53.376Z,48.83
2022-07-26T23:05:21.673Z,48.83
2022-07-26T23:08:18.359Z,48.47
2022-07-26T23:10:52.878Z,49.34
2022-07-26T23:13:21.289Z,49.42
2022-07-26T23:15:53.548Z,51.66
2022-07-26T23:18:24.173Z,52.54
2022-07-26T23:20:51.725Z,51.69
2022-07-26T23:23:19.305Z,49.99
2022-07-26T23:25:47.663Z,49.94
2022-07-26T23:28:35.222Z,48.85
2022-07-26T23:31:07.756Z,49.14
2022-07-26T23:33:51.584Z,49.18
2022-07-26T23:36:25.816Z,48.96
2022-07-26T23:38:57.850Z,48.87
2022-07-26T23:41:26.658Z,48.78
2022-07-26T23:43:54.604Z,48.77
2022-07-26T23:46:22.981Z,48.89
2022-07-26T23:48:51.356Z,48.88
2022-07-26T23:51:19.604Z,48.75
2022-07-26T23:53:47.272Z,48.85
2022-07-26T23:56:15.638Z,48.90
2022-07-26T23:58:43.416Z,48.80
